sensor_id;sensor_type;location;lat;lon;timestamp;pressure;altitude;pressure_sealevel;temperature;humidity
46534;BME280;32260;52.008;4.752;2022-09-09T00:04:34;100788.63;;;18.62;64.45
46534;BME280;32260;52.008;4.752;2022-09-09T00:09:46;100782.94;;;18.52;64.55
46534;BME280;32260;52.008;4.752;2022-09-09T00:13:39;100783.88;;;18.51;64.21
46534;BME280;32260;52.008;4.752;2022-09-09T00:15:14;100783.25;;;18.46;64.76
46534;BME280;32260;52.008;4.752;2022-09-09T00:23:29;100782.78;;;18.37;64.93
46534;BME280;32260;52.008;4.752;2022-09-09T00:31:44;100779.81;;;18.26;64.97
46534;BME280;32260;52.008;4.752;2022-09-09T00:34:13;100774.47;;;18.26;65.21
46534;BME280;32260;52.008;4.752;2022-09-09T00:36:41;100775.50;;;18.23;64.87
46534;BME280;32260;52.008;4.752;2022-09-09T00:42:39;100765.63;;;18.24;64.91
46534;BME280;32260;52.008;4.752;2022-09-09T00:47:53;100754.28;;;18.19;65.38
46534;BME280;32260;52.008;4.752;2022-09-09T00:51:38;100749.00;;;18.17;65.52
46534;BME280;32260;52.008;4.752;2022-09-09T00:56:22;100757.91;;;18.18;64.81
46534;BME280;32260;52.008;4.752;2022-09-09T00:59:07;100750.97;;;18.14;65.17
46534;BME280;32260;52.008;4.752;2022-09-09T01:01:38;100752.25;;;18.06;65.47
46534;BME280;32260;52.008;4.752;2022-09-09T01:04:11;100762.03;;;18.07;65.09
46534;BME280;32260;52.008;4.752;2022-09-09T01:06:42;100757.78;;;18.03;65.59
46534;BME280;32260;52.008;4.752;2022-09-09T01:09:32;100757.28;;;18.13;64.98
46534;BME280;32260;52.008;4.752;2022-09-09T01:14:47;100764.81;;;18.06;65.14
46534;BME280;32260;52.008;4.752;2022-09-09T01:24:02;100749.56;;;18.06;65.28
46534;BME280;32260;52.008;4.752;2022-09-09T01:26:10;100741.53;;;18.06;64.98
46534;BME280;32260;52.008;4.752;2022-09-09T01:28:42;100745.66;;;17.96;65.77
46534;BME280;32260;52.008;4.752;2022-09-09T01:31:14;100734.75;;;17.99;65.66
46534;BME280;32260;52.008;4.752;2022-09-09T01:33:41;100732.88;;;18.01;65.32
46534;BME280;32260;52.008;4.752;2022-09-09T01:36:14;100731.84;;;18.04;65.49
46534;BME280;32260;52.008;4.752;2022-09-09T01:38:42;100727.31;;;18.04;65.54
46534;BME280;32260;52.008;4.752;2022-09-09T01:41:08;100729.06;;;18.05;65.90
46534;BME280;32260;52.008;4.752;2022-09-09T01:43:34;100723.47;;;18.10;65.80
46534;BME280;32260;52.008;4.752;2022-09-09T01:46:01;100721.50;;;18.14;65.76
46534;BME280;32260;52.008;4.752;2022-09-09T01:48:29;100730.16;;;18.19;65.72
46534;BME280;32260;52.008;4.752;2022-09-09T01:50:55;100720.22;;;18.21;65.92
46534;BME280;32260;52.008;4.752;2022-09-09T01:53:22;100726.19;;;18.26;65.40
46534;BME280;32260;52.008;4.752;2022-09-09T01:56:05;100723.19;;;18.32;65.49
46534;BME280;32260;52.008;4.752;2022-09-09T02:03:53;100731.22;;;18.32;65.01
46534;BME280;32260;52.008;4.752;2022-09-09T02:06:30;100719.47;;;18.35;65.17
46534;BME280;32260;52.008;4.752;2022-09-09T02:08:58;100722.38;;;18.30;65.12
46534;BME280;32260;52.008;4.752;2022-09-09T02:11:27;100722.03;;;18.36;65.17
46534;BME280;32260;52.008;4.752;2022-09-09T02:14:01;100720.16;;;18.38;64.86
46534;BME280;32260;52.008;4.752;2022-09-09T02:16:50;100717.56;;;18.37;65.18
46534;BME280;32260;52.008;4.752;2022-09-09T02:19:23;100716.53;;;18.39;65.14
46534;BME280;32260;52.008;4.752;2022-09-09T02:21:54;100712.13;;;18.38;65.38
46534;BME280;32260;52.008;4.752;2022-09-09T02:24:22;100703.19;;;18.38;65.04
46534;BME280;32260;52.008;4.752;2022-09-09T02:26:51;100710.19;;;18.40;65.13
46534;BME280;32260;52.008;4.752;2022-09-09T02:29:26;100711.16;;;18.39;64.82
46534;BME280;32260;52.008;4.752;2022-09-09T02:31:53;100704.16;;;18.37;64.94
46534;BME280;32260;52.008;4.752;2022-09-09T02:34:23;100697.81;;;18.38;64.88
46534;BME280;32260;52.008;4.752;2022-09-09T02:36:51;100707.00;;;18.34;64.72
46534;BME280;32260;52.008;4.752;2022-09-09T02:39:18;100696.50;;;18.29;64.70
46534;BME280;32260;52.008;4.752;2022-09-09T02:41:44;100695.91;;;18.24;64.81
46534;BME280;32260;52.008;4.752;2022-09-09T02:44:13;100692.44;;;18.22;64.99
46534;BME280;32260;52.008;4.752;2022-09-09T02:52:08;100681.41;;;18.10;64.97
46534;BME280;32260;52.008;4.752;2022-09-09T02:54:38;100677.88;;;18.10;64.98
46534;BME280;32260;52.008;4.752;2022-09-09T02:57:12;100679.53;;;18.13;64.70
46534;BME280;32260;52.008;4.752;2022-09-09T02:59:40;100686.97;;;18.07;64.92
46534;BME280;32260;52.008;4.752;2022-09-09T03:02:07;100682.53;;;18.06;64.82
46534;BME280;32260;52.008;4.752;2022-09-09T03:04:33;100682.78;;;18.02;65.41
46534;BME280;32260;52.008;4.752;2022-09-09T03:06:59;100689.19;;;17.99;64.95
46534;BME280;32260;52.008;4.752;2022-09-09T03:09:25;100695.50;;;17.98;65.20
46534;BME280;32260;52.008;4.752;2022-09-09T03:11:52;100693.97;;;17.92;65.03
46534;BME280;32260;52.008;4.752;2022-09-09T03:14:21;100688.84;;;17.88;65.02
46534;BME280;32260;52.008;4.752;2022-09-09T03:16:50;100683.66;;;17.85;65.28
46534;BME280;32260;52.008;4.752;2022-09-09T03:19:17;100686.59;;;17.80;65.25
46534;BME280;32260;52.008;4.752;2022-09-09T03:21:45;100685.03;;;17.76;65.13
46534;BME280;32260;52.008;4.752;2022-09-09T03:24:11;100690.53;;;17.73;65.21
46534;BME280;32260;52.008;4.752;2022-09-09T03:26:38;100688.09;;;17.68;65.42
46534;BME280;32260;52.008;4.752;2022-09-09T03:29:07;100688.25;;;17.65;65.32
46534;BME280;32260;52.008;4.752;2022-09-09T03:31:33;100690.16;;;17.63;65.58
46534;BME280;32260;52.008;4.752;2022-09-09T03:34:00;100688.44;;;17.62;65.55
46534;BME280;32260;52.008;4.752;2022-09-09T03:36:27;100692.91;;;17.61;65.30
46534;BME280;32260;52.008;4.752;2022-09-09T03:38:54;100693.94;;;17.59;65.32
46534;BME280;32260;52.008;4.752;2022-09-09T03:41:21;100686.94;;;17.56;65.44
46534;BME280;32260;52.008;4.752;2022-09-09T03:43:50;100687.00;;;17.55;65.46
46534;BME280;32260;52.008;4.752;2022-09-09T03:46:17;100686.31;;;17.51;65.80
46534;BME280;32260;52.008;4.752;2022-09-09T03:48:44;100685.41;;;17.51;65.72
46534;BME280;32260;52.008;4.752;2022-09-09T03:51:12;100680.38;;;17.44;66.02
46534;BME280;32260;52.008;4.752;2022-09-09T03:53:39;100677.78;;;17.43;66.16
46534;BME280;32260;52.008;4.752;2022-09-09T03:56:06;100676.94;;;17.42;66.15
46534;BME280;32260;52.008;4.752;2022-09-09T03:58:34;100685.91;;;17.41;65.65
46534;BME280;32260;52.008;4.752;2022-09-09T04:01:02;100689.53;;;17.40;66.06
46534;BME280;32260;52.008;4.752;2022-09-09T04:03:29;100684.41;;;17.36;66.27
46534;BME280;32260;52.008;4.752;2022-09-09T04:05:57;100675.69;;;17.32;66.49
46534;BME280;32260;52.008;4.752;2022-09-09T04:08:24;100671.31;;;17.29;66.00
46534;BME280;32260;52.008;4.752;2022-09-09T04:10:52;100666.97;;;17.27;66.03
46534;BME280;32260;52.008;4.752;2022-09-09T04:13:18;100672.50;;;17.24;66.40
46534;BME280;32260;52.008;4.752;2022-09-09T04:15:52;100661.63;;;17.27;66.65
46534;BME280;32260;52.008;4.752;2022-09-09T04:18:19;100667.16;;;17.24;66.21
46534;BME280;32260;52.008;4.752;2022-09-09T04:20:48;100659.94;;;17.26;66.25
46534;BME280;32260;52.008;4.752;2022-09-09T04:23:15;100660.91;;;17.23;66.20
46534;BME280;32260;52.008;4.752;2022-09-09T04:25:47;100653.84;;;17.22;66.54
46534;BME280;32260;52.008;4.752;2022-09-09T04:28:14;100647.78;;;17.19;66.53
46534;BME280;32260;52.008;4.752;2022-09-09T04:30:44;100650.47;;;17.19;66.66
46534;BME280;32260;52.008;4.752;2022-09-09T04:33:14;100654.88;;;17.20;66.43
46534;BME280;32260;52.008;4.752;2022-09-09T04:35:49;100659.34;;;17.19;67.11
46534;BME280;32260;52.008;4.752;2022-09-09T04:38:16;100656.91;;;17.14;67.02
46534;BME280;32260;52.008;4.752;2022-09-09T04:40:46;100654.16;;;17.16;66.46
46534;BME280;32260;52.008;4.752;2022-09-09T04:43:13;100654.31;;;17.13;66.88
46534;BME280;32260;52.008;4.752;2022-09-09T04:45:42;100654.22;;;17.14;66.95
46534;BME280;32260;52.008;4.752;2022-09-09T04:48:09;100649.84;;;17.13;67.15
46534;BME280;32260;52.008;4.752;2022-09-09T04:50:35;100646.06;;;17.18;66.86
46534;BME280;32260;52.008;4.752;2022-09-09T04:53:03;100641.53;;;17.18;66.99
46534;BME280;32260;52.008;4.752;2022-09-09T04:55:30;100644.16;;;17.20;67.08
46534;BME280;32260;52.008;4.752;2022-09-09T04:57:57;100643.19;;;17.21;66.88
46534;BME280;32260;52.008;4.752;2022-09-09T05:00:24;100649.34;;;17.23;66.93
46534;BME280;32260;52.008;4.752;2022-09-09T05:02:50;100638.81;;;17.20;67.30
46534;BME280;32260;52.008;4.752;2022-09-09T05:05:17;100636.06;;;17.21;67.18
46534;BME280;32260;52.008;4.752;2022-09-09T05:07:44;100644.16;;;17.20;67.29
46534;BME280;32260;52.008;4.752;2022-09-09T05:10:10;100636.13;;;17.20;67.09
46534;BME280;32260;52.008;4.752;2022-09-09T05:12:36;100636.75;;;17.25;67.20
46534;BME280;32260;52.008;4.752;2022-09-09T05:15:07;100640.22;;;17.27;66.86
46534;BME280;32260;52.008;4.752;2022-09-09T05:17:34;100633.16;;;17.26;67.17
46534;BME280;32260;52.008;4.752;2022-09-09T05:20:00;100638.31;;;17.29;66.88
46534;BME280;32260;52.008;4.752;2022-09-09T05:22:26;100637.38;;;17.30;66.86
46534;BME280;32260;52.008;4.752;2022-09-09T05:24:52;100629.19;;;17.33;67.22
46534;BME280;32260;52.008;4.752;2022-09-09T05:27:18;100638.00;;;17.35;66.99
46534;BME280;32260;52.008;4.752;2022-09-09T05:29:46;100637.06;;;17.36;67.31
46534;BME280;32260;52.008;4.752;2022-09-09T05:32:13;100641.50;;;17.37;67.07
46534;BME280;32260;52.008;4.752;2022-09-09T05:34:41;100637.69;;;17.41;66.90
46534;BME280;32260;52.008;4.752;2022-09-09T05:37:07;100634.09;;;17.42;67.30
46534;BME280;32260;52.008;4.752;2022-09-09T05:39:34;100632.88;;;17.48;66.98
46534;BME280;32260;52.008;4.752;2022-09-09T05:42:03;100633.75;;;17.49;67.14
46534;BME280;32260;52.008;4.752;2022-09-09T05:44:30;100637.06;;;17.54;66.69
46534;BME280;32260;52.008;4.752;2022-09-09T05:46:56;100631.69;;;17.54;67.13
46534;BME280;32260;52.008;4.752;2022-09-09T05:49:24;100635.19;;;17.56;67.23
46534;BME280;32260;52.008;4.752;2022-09-09T05:51:50;100633.16;;;17.59;67.63
46534;BME280;32260;52.008;4.752;2022-09-09T05:54:16;100637.44;;;17.63;67.53
46534;BME280;32260;52.008;4.752;2022-09-09T05:56:43;100634.16;;;17.74;67.69
46534;BME280;32260;52.008;4.752;2022-09-09T05:59:09;100639.19;;;17.81;67.96
46534;BME280;32260;52.008;4.752;2022-09-09T06:01:36;100643.06;;;17.92;67.95
46534;BME280;32260;52.008;4.752;2022-09-09T06:04:06;100642.31;;;18.06;67.74
46534;BME280;32260;52.008;4.752;2022-09-09T06:06:38;100643.53;;;18.17;67.51
46534;BME280;32260;52.008;4.752;2022-09-09T06:09:07;100643.06;;;18.26;67.41
46534;BME280;32260;52.008;4.752;2022-09-09T06:11:37;100639.84;;;18.35;67.33
46534;BME280;32260;52.008;4.752;2022-09-09T06:14:04;100648.25;;;18.45;67.38
46534;BME280;32260;52.008;4.752;2022-09-09T06:16:31;100628.28;;;18.51;67.05
46534;BME280;32260;52.008;4.752;2022-09-09T06:18:59;100633.00;;;18.62;66.72
46534;BME280;32260;52.008;4.752;2022-09-09T06:24:03;100633.34;;;18.71;66.23
46534;BME280;32260;52.008;4.752;2022-09-09T06:26:32;100640.19;;;18.77;66.08
46534;BME280;32260;52.008;4.752;2022-09-09T06:28:59;100639.31;;;18.76;65.85
46534;BME280;32260;52.008;4.752;2022-09-09T06:31:28;100638.94;;;18.83;65.49
46534;BME280;32260;52.008;4.752;2022-09-09T06:33:57;100635.50;;;18.81;65.45
46534;BME280;32260;52.008;4.752;2022-09-09T06:36:39;100639.06;;;18.81;65.24
46534;BME280;32260;52.008;4.752;2022-09-09T06:39:06;100633.41;;;18.86;65.39
46534;BME280;32260;52.008;4.752;2022-09-09T06:41:33;100638.78;;;18.86;65.59
46534;BME280;32260;52.008;4.752;2022-09-09T06:43:59;100633.88;;;18.94;65.23
46534;BME280;32260;52.008;4.752;2022-09-09T06:46:29;100639.66;;;19.02;65.23
46534;BME280;32260;52.008;4.752;2022-09-09T06:48:56;100637.38;;;19.11;65.12
46534;BME280;32260;52.008;4.752;2022-09-09T06:51:26;100638.94;;;19.15;64.94
46534;BME280;32260;52.008;4.752;2022-09-09T06:53:54;100637.16;;;19.30;64.81
46534;BME280;32260;52.008;4.752;2022-09-09T06:56:24;100636.38;;;19.28;64.56
46534;BME280;32260;52.008;4.752;2022-09-09T06:58:52;100637.16;;;19.30;64.46
46534;BME280;32260;52.008;4.752;2022-09-09T07:01:21;100643.97;;;19.35;64.29
46534;BME280;32260;52.008;4.752;2022-09-09T07:03:49;100638.31;;;19.40;64.22
46534;BME280;32260;52.008;4.752;2022-09-09T07:06:18;100635.47;;;19.43;63.95
46534;BME280;32260;52.008;4.752;2022-09-09T07:08:49;100640.19;;;19.54;63.95
46534;BME280;32260;52.008;4.752;2022-09-09T07:11:16;100640.84;;;19.58;63.56
46534;BME280;32260;52.008;4.752;2022-09-09T07:13:42;100637.88;;;19.62;63.58
46534;BME280;32260;52.008;4.752;2022-09-09T07:16:12;100633.00;;;19.69;63.33
46534;BME280;32260;52.008;4.752;2022-09-09T07:18:40;100640.47;;;19.64;63.07
46534;BME280;32260;52.008;4.752;2022-09-09T07:21:07;100636.53;;;19.69;63.01
46534;BME280;32260;52.008;4.752;2022-09-09T07:23:34;100636.34;;;19.72;62.95
46534;BME280;32260;52.008;4.752;2022-09-09T07:26:02;100643.69;;;19.85;62.89
46534;BME280;32260;52.008;4.752;2022-09-09T07:28:28;100643.28;;;19.91;62.84
46534;BME280;32260;52.008;4.752;2022-09-09T07:30:59;100643.47;;;20.02;62.29
46534;BME280;32260;52.008;4.752;2022-09-09T07:33:26;100637.16;;;20.03;62.03
46534;BME280;32260;52.008;4.752;2022-09-09T07:35:52;100633.34;;;20.08;62.00
46534;BME280;32260;52.008;4.752;2022-09-09T07:38:20;100641.09;;;20.12;61.62
46534;BME280;32260;52.008;4.752;2022-09-09T07:40:47;100638.78;;;20.20;61.28
46534;BME280;32260;52.008;4.752;2022-09-09T07:43:13;100641.38;;;20.22;61.12
46534;BME280;32260;52.008;4.752;2022-09-09T07:45:39;100635.88;;;20.24;61.06
46534;BME280;32260;52.008;4.752;2022-09-09T07:48:08;100645.19;;;20.32;60.83
46534;BME280;32260;52.008;4.752;2022-09-09T07:50:34;100645.00;;;20.35;60.77
46534;BME280;32260;52.008;4.752;2022-09-09T07:53:00;100633.28;;;20.36;60.76
46534;BME280;32260;52.008;4.752;2022-09-09T07:55:31;100632.88;;;20.43;60.25
46534;BME280;32260;52.008;4.752;2022-09-09T07:57:57;100640.56;;;20.34;60.02
46534;BME280;32260;52.008;4.752;2022-09-09T08:00:24;100647.31;;;20.42;60.25
46534;BME280;32260;52.008;4.752;2022-09-09T08:02:50;100642.09;;;20.39;60.68
46534;BME280;32260;52.008;4.752;2022-09-09T08:05:16;100633.94;;;20.40;60.01
46534;BME280;32260;52.008;4.752;2022-09-09T08:07:44;100638.00;;;20.33;60.25
46534;BME280;32260;52.008;4.752;2022-09-09T08:10:10;100647.47;;;20.39;60.57
46534;BME280;32260;52.008;4.752;2022-09-09T08:12:36;100646.34;;;20.28;60.37
46534;BME280;32260;52.008;4.752;2022-09-09T08:15:02;100642.53;;;20.18;59.87
46534;BME280;32260;52.008;4.752;2022-09-09T08:17:28;100644.84;;;20.24;60.23
46534;BME280;32260;52.008;4.752;2022-09-09T08:19:54;100637.16;;;20.18;60.33
46534;BME280;32260;52.008;4.752;2022-09-09T08:22:20;100641.56;;;20.19;60.31
46534;BME280;32260;52.008;4.752;2022-09-09T08:24:47;100651.94;;;20.25;60.55
46534;BME280;32260;52.008;4.752;2022-09-09T08:27:13;100641.38;;;20.22;60.56
46534;BME280;32260;52.008;4.752;2022-09-09T08:29:39;100648.69;;;20.20;60.26
46534;BME280;32260;52.008;4.752;2022-09-09T08:32:06;100646.34;;;20.28;60.46
46534;BME280;32260;52.008;4.752;2022-09-09T08:34:32;100645.97;;;20.34;60.29
46534;BME280;32260;52.008;4.752;2022-09-09T08:36:58;100650.16;;;20.39;59.92
46534;BME280;32260;52.008;4.752;2022-09-09T08:39:24;100641.69;;;20.45;59.85
46534;BME280;32260;52.008;4.752;2022-09-09T08:55:56;100652.47;;;20.45;59.69
46534;BME280;32260;52.008;4.752;2022-09-09T08:58:28;100650.75;;;20.44;59.82
46534;BME280;32260;52.008;4.752;2022-09-09T09:01:13;100650.16;;;20.53;59.65
46534;BME280;32260;52.008;4.752;2022-09-09T09:03:57;100652.00;;;20.52;59.40
46534;BME280;32260;52.008;4.752;2022-09-09T09:11:48;100658.25;;;20.39;60.95
46534;BME280;32260;52.008;4.752;2022-09-09T09:17:01;100663.38;;;20.29;61.41
46534;BME280;32260;52.008;4.752;2022-09-09T09:19:30;100665.78;;;20.19;61.51
46534;BME280;32260;52.008;4.752;2022-09-09T09:23:02;100664.06;;;20.18;61.96
46534;BME280;32260;52.008;4.752;2022-09-09T09:25:17;100664.63;;;20.23;61.75
46534;BME280;32260;52.008;4.752;2022-09-09T09:27:51;100669.81;;;20.26;61.58
46534;BME280;32260;52.008;4.752;2022-09-09T09:30:21;100661.53;;;20.15;62.07
46534;BME280;32260;52.008;4.752;2022-09-09T09:32:56;100663.44;;;20.27;61.93
46534;BME280;32260;52.008;4.752;2022-09-09T09:35:24;100661.75;;;20.26;61.95
46534;BME280;32260;52.008;4.752;2022-09-09T09:37:50;100660.88;;;20.26;61.74
46534;BME280;32260;52.008;4.752;2022-09-09T09:40:19;100664.22;;;20.29;62.16
46534;BME280;32260;52.008;4.752;2022-09-09T09:45:35;100660.19;;;20.22;62.69
46534;BME280;32260;52.008;4.752;2022-09-09T09:48:11;100654.13;;;20.18;62.88
46534;BME280;32260;52.008;4.752;2022-09-09T09:50:49;100653.47;;;20.15;63.26
46534;BME280;32260;52.008;4.752;2022-09-09T09:53:25;100651.38;;;20.20;63.46
46534;BME280;32260;52.008;4.752;2022-09-09T09:55:57;100652.63;;;20.29;63.77
46534;BME280;32260;52.008;4.752;2022-09-09T09:58:26;100647.88;;;20.32;63.80
46534;BME280;32260;52.008;4.752;2022-09-09T10:00:55;100644.22;;;20.48;64.00
46534;BME280;32260;52.008;4.752;2022-09-09T10:03:28;100647.41;;;20.82;63.96
46534;BME280;32260;52.008;4.752;2022-09-09T10:05:55;100639.31;;;21.09;64.61
46534;BME280;32260;52.008;4.752;2022-09-09T10:08:25;100645.72;;;21.47;63.34
46534;BME280;32260;52.008;4.752;2022-09-09T10:13:51;100640.81;;;21.92;59.88
46534;BME280;32260;52.008;4.752;2022-09-09T10:16:32;100644.69;;;22.01;59.42
46534;BME280;32260;52.008;4.752;2022-09-09T10:19:09;100639.31;;;22.01;59.00
46534;BME280;32260;52.008;4.752;2022-09-09T10:21:50;100641.88;;;22.03;59.35
46534;BME280;32260;52.008;4.752;2022-09-09T10:30:19;100644.91;;;21.85;58.29
46534;BME280;32260;52.008;4.752;2022-09-09T10:35:31;100644.81;;;21.87;58.78
46534;BME280;32260;52.008;4.752;2022-09-09T10:38:17;100647.06;;;21.93;57.92
46534;BME280;32260;52.008;4.752;2022-09-09T10:43:52;100644.28;;;21.94;58.12
46534;BME280;32260;52.008;4.752;2022-09-09T10:49:25;100647.72;;;22.09;57.21
46534;BME280;32260;52.008;4.752;2022-09-09T10:52:15;100645.66;;;22.00;57.72
46534;BME280;32260;52.008;4.752;2022-09-09T10:55:10;100649.69;;;21.94;57.59
46534;BME280;32260;52.008;4.752;2022-09-09T10:57:46;100640.28;;;21.87;58.22
46534;BME280;32260;52.008;4.752;2022-09-09T11:03:00;100639.53;;;21.85;57.75
46534;BME280;32260;52.008;4.752;2022-09-09T11:08:11;100650.75;;;21.66;58.17
46534;BME280;32260;52.008;4.752;2022-09-09T11:10:44;100643.94;;;21.60;58.54
46534;BME280;32260;52.008;4.752;2022-09-09T11:17:06;100654.09;;;21.70;59.87
46534;BME280;32260;52.008;4.752;2022-09-09T11:19:00;100644.16;;;21.96;59.07
46534;BME280;32260;52.008;4.752;2022-09-09T11:21:32;100643.19;;;22.10;58.53
46534;BME280;32260;52.008;4.752;2022-09-09T11:24:04;100638.84;;;22.20;57.96
46534;BME280;32260;52.008;4.752;2022-09-09T11:26:41;100637.94;;;22.33;57.88
46534;BME280;32260;52.008;4.752;2022-09-09T11:38:21;100648.66;;;22.71;56.14
46534;BME280;32260;52.008;4.752;2022-09-09T11:41:01;100642.34;;;22.59;55.54
46534;BME280;32260;52.008;4.752;2022-09-09T11:43:33;100647.72;;;22.59;56.10
46534;BME280;32260;52.008;4.752;2022-09-09T11:46:05;100646.75;;;22.60;56.30
46534;BME280;32260;52.008;4.752;2022-09-09T11:48:35;100638.47;;;22.75;56.08
46534;BME280;32260;52.008;4.752;2022-09-09T11:53:58;100644.75;;;22.75;54.80
46534;BME280;32260;52.008;4.752;2022-09-09T12:02:14;100638.41;;;22.64;56.27
46534;BME280;32260;52.008;4.752;2022-09-09T12:04:46;100644.22;;;22.46;56.34
46534;BME280;32260;52.008;4.752;2022-09-09T12:07:37;100642.28;;;22.48;57.04
46534;BME280;32260;52.008;4.752;2022-09-09T12:13:24;100630.47;;;22.49;58.14
46534;BME280;32260;52.008;4.752;2022-09-09T12:18:37;100634.31;;;22.21;57.02
46534;BME280;32260;52.008;4.752;2022-09-09T12:23:50;100636.44;;;22.41;58.02
46534;BME280;32260;52.008;4.752;2022-09-09T12:32:01;100627.38;;;22.29;58.06
46534;BME280;32260;52.008;4.752;2022-09-09T12:42:33;100628.66;;;21.61;61.29
46534;BME280;32260;52.008;4.752;2022-09-09T12:45:01;100630.31;;;21.49;61.64
46534;BME280;32260;52.008;4.752;2022-09-09T12:50:21;100641.94;;;21.37;62.91
46534;BME280;32260;52.008;4.752;2022-09-09T12:52:50;100644.00;;;21.33;62.97
46534;BME280;32260;52.008;4.752;2022-09-09T12:55:20;100641.81;;;21.25;62.49
46534;BME280;32260;52.008;4.752;2022-09-09T12:57:48;100645.19;;;21.29;62.37
46534;BME280;32260;52.008;4.752;2022-09-09T13:00:19;100649.19;;;21.36;62.85
46534;BME280;32260;52.008;4.752;2022-09-09T13:02:50;100651.97;;;21.34;61.97
46534;BME280;32260;52.008;4.752;2022-09-09T13:05:34;100651.75;;;21.38;62.57
46534;BME280;32260;52.008;4.752;2022-09-09T13:08:03;100652.59;;;21.25;62.64
46534;BME280;32260;52.008;4.752;2022-09-09T13:10:33;100650.13;;;21.22;62.57
46534;BME280;32260;52.008;4.752;2022-09-09T13:13:01;100642.06;;;21.22;62.46
46534;BME280;32260;52.008;4.752;2022-09-09T13:15:29;100641.28;;;21.20;62.54
46534;BME280;32260;52.008;4.752;2022-09-09T13:17:57;100637.63;;;21.21;63.12
46534;BME280;32260;52.008;4.752;2022-09-09T13:20:26;100636.66;;;21.22;62.81
46534;BME280;32260;52.008;4.752;2022-09-09T13:22:55;100637.94;;;21.16;62.72
46534;BME280;32260;52.008;4.752;2022-09-09T13:25:27;100657.63;;;21.17;62.67
46534;BME280;32260;52.008;4.752;2022-09-09T13:27:59;100651.94;;;21.09;62.99
46534;BME280;32260;52.008;4.752;2022-09-09T13:30:32;100650.59;;;21.01;63.61
46534;BME280;32260;52.008;4.752;2022-09-09T13:33:05;100657.59;;;20.91;64.14
46534;BME280;32260;52.008;4.752;2022-09-09T13:35:33;100670.41;;;20.73;64.21
46534;BME280;32260;52.008;4.752;2022-09-09T13:38:06;100669.94;;;20.66;65.08
46534;BME280;32260;52.008;4.752;2022-09-09T13:40:33;100659.16;;;20.66;64.71
46534;BME280;32260;52.008;4.752;2022-09-09T13:43:00;100667.03;;;20.69;64.96
46534;BME280;32260;52.008;4.752;2022-09-09T13:45:28;100668.97;;;20.67;65.78
46534;BME280;32260;52.008;4.752;2022-09-09T13:47:54;100649.25;;;20.81;66.11
46534;BME280;32260;52.008;4.752;2022-09-09T13:52:59;100660.69;;;21.25;65.48
46534;BME280;32260;52.008;4.752;2022-09-09T13:55:27;100667.00;;;21.11;63.86
46534;BME280;32260;52.008;4.752;2022-09-09T13:57:56;100668.13;;;21.22;63.50
46534;BME280;32260;52.008;4.752;2022-09-09T14:00:23;100667.69;;;21.15;63.69
46534;BME280;32260;52.008;4.752;2022-09-09T14:02:50;100658.63;;;21.16;63.15
46534;BME280;32260;52.008;4.752;2022-09-09T14:05:18;100661.88;;;21.34;63.09
46534;BME280;32260;52.008;4.752;2022-09-09T14:07:44;100657.81;;;21.28;62.82
46534;BME280;32260;52.008;4.752;2022-09-09T14:10:12;100654.94;;;21.17;62.83
46534;BME280;32260;52.008;4.752;2022-09-09T14:12:38;100653.44;;;21.13;62.81
46534;BME280;32260;52.008;4.752;2022-09-09T14:15:06;100652.94;;;20.93;62.92
46534;BME280;32260;52.008;4.752;2022-09-09T14:17:32;100667.22;;;20.81;63.83
46534;BME280;32260;52.008;4.752;2022-09-09T14:19:59;100660.63;;;20.58;64.23
46534;BME280;32260;52.008;4.752;2022-09-09T14:22:25;100664.13;;;20.45;64.45
46534;BME280;32260;52.008;4.752;2022-09-09T14:24:52;100666.41;;;20.37;65.33
46534;BME280;32260;52.008;4.752;2022-09-09T14:27:18;100661.81;;;20.25;65.76
46534;BME280;32260;52.008;4.752;2022-09-09T14:29:45;100655.09;;;20.17;66.72
46534;BME280;32260;52.008;4.752;2022-09-09T14:32:12;100657.91;;;20.16;66.93
46534;BME280;32260;52.008;4.752;2022-09-09T14:34:38;100657.03;;;20.15;67.01
46534;BME280;32260;52.008;4.752;2022-09-09T14:37:04;100657.53;;;20.08;67.18
46534;BME280;32260;52.008;4.752;2022-09-09T14:39:30;100658.97;;;20.13;67.55
46534;BME280;32260;52.008;4.752;2022-09-09T14:41:56;100666.91;;;20.15;67.25
46534;BME280;32260;52.008;4.752;2022-09-09T14:44:23;100654.47;;;20.14;67.58
46534;BME280;32260;52.008;4.752;2022-09-09T14:46:49;100669.22;;;20.21;67.23
46534;BME280;32260;52.008;4.752;2022-09-09T14:49:16;100655.97;;;20.18;67.56
46534;BME280;32260;52.008;4.752;2022-09-09T14:51:42;100669.81;;;20.26;66.30
46534;BME280;32260;52.008;4.752;2022-09-09T14:54:08;100672.41;;;20.28;66.89
46534;BME280;32260;52.008;4.752;2022-09-09T14:56:34;100675.94;;;20.43;66.68
46534;BME280;32260;52.008;4.752;2022-09-09T14:59:01;100672.28;;;20.44;66.89
46534;BME280;32260;52.008;4.752;2022-09-09T15:01:28;100663.44;;;20.56;66.91
46534;BME280;32260;52.008;4.752;2022-09-09T15:03:58;100669.72;;;20.69;66.36
46534;BME280;32260;52.008;4.752;2022-09-09T15:06:26;100671.84;;;20.79;66.02
46534;BME280;32260;52.008;4.752;2022-09-09T15:08:53;100674.22;;;20.83;66.39
46534;BME280;32260;52.008;4.752;2022-09-09T15:11:20;100671.63;;;20.82;65.60
46534;BME280;32260;52.008;4.752;2022-09-09T15:13:50;100676.22;;;20.94;65.31
46534;BME280;32260;52.008;4.752;2022-09-09T15:16:19;100678.16;;;20.92;65.37
46534;BME280;32260;52.008;4.752;2022-09-09T15:18:46;100675.41;;;21.07;65.03
46534;BME280;32260;52.008;4.752;2022-09-09T15:21:14;100683.19;;;21.11;65.09
46534;BME280;32260;52.008;4.752;2022-09-09T15:23:42;100682.22;;;21.12;64.62
46534;BME280;32260;52.008;4.752;2022-09-09T15:26:09;100681.06;;;21.29;65.07
46534;BME280;32260;52.008;4.752;2022-09-09T15:28:37;100687.59;;;21.53;64.87